createdAt,value
2019-02-20T00:00:50.924Z,26.02
2019-02-20T00:01:55.929Z,32.42
2019-02-20T00:03:01.018Z,30.10
2019-02-20T00:04:06.093Z,43.65
2019-02-20T00:05:11.797Z,41.70
2019-02-20T00:06:16.839Z,34.92
2019-02-20T00:07:21.802Z,43.78
2019-02-20T00:08:26.770Z,39.58
2019-02-20T00:09:31.722Z,39.75
2019-02-20T00:10:36.642Z,38.53
2019-02-20T00:11:41.849Z,49.38
2019-02-20T00:12:46.790Z,33.30
2019-02-20T00:13:51.828Z,38.13
2019-02-20T00:14:56.799Z,43.85
2019-02-20T00:16:01.926Z,37.25
2019-02-20T00:17:11.861Z,35.48
2019-02-20T00:18:17.211Z,40.50
2019-02-20T00:19:22.170Z,39.65
2019-02-20T00:20:27.112Z,42.23
2019-02-20T00:21:32.052Z,42.55
2019-02-20T00:22:40.198Z,31.73
2019-02-20T00:23:43.701Z,41.40
2019-02-20T00:24:48.631Z,42.08
2019-02-20T00:25:53.595Z,43.35
2019-02-20T00:26:59.205Z,49.03
2019-02-20T00:28:04.369Z,36.20
2019-02-20T00:29:09.284Z,38.92
2019-02-20T00:30:14.305Z,49.42
2019-02-20T00:31:19.250Z,38.60
2019-02-20T00:32:24.469Z,42.13
2019-02-20T00:33:29.390Z,36.25
2019-02-20T00:34:34.312Z,38.35
2019-02-20T00:35:39.257Z,35.23
2019-02-20T00:36:44.449Z,38.98
2019-02-20T00:37:49.371Z,39.63
2019-02-20T00:38:54.738Z,36.20
2019-02-20T00:39:59.833Z,43.68
2019-02-20T00:41:05.158Z,38.65
2019-02-20T00:42:10.464Z,27.13
2019-02-20T00:43:15.461Z,36.33
2019-02-20T00:44:51.853Z,35.40
2019-02-20T00:46:16.161Z,32.30
2019-02-20T00:47:28.854Z,28.75
2019-02-20T00:48:52.106Z,31.45
2019-02-20T00:49:57.053Z,29.12
2019-02-20T00:51:13.643Z,31.23
2019-02-20T00:52:31.332Z,35.43
2019-02-20T00:53:41.395Z,47.38
2019-02-20T00:54:46.316Z,37.33
2019-02-20T00:55:51.277Z,44.08
2019-02-20T00:56:56.171Z,52.43
2019-02-20T00:58:01.229Z,51.08
2019-02-20T00:59:06.346Z,45.67
2019-02-20T01:00:12.435Z,61.33
2019-02-20T01:01:17.368Z,60.63
2019-02-20T01:02:22.409Z,66.17
2019-02-20T01:03:27.405Z,59.18
2019-02-20T01:04:36.172Z,63.28
2019-02-20T01:05:41.357Z,58.17
2019-02-20T01:06:46.332Z,55.33
2019-02-20T01:07:51.911Z,71.72
2019-02-20T01:08:56.852Z,59.38
2019-02-20T01:10:01.850Z,58.08
2019-02-20T01:11:06.895Z,58.63
2019-02-20T01:12:12.556Z,54.80
2019-02-20T01:13:17.602Z,61.92
2019-02-20T01:14:22.507Z,55.92
2019-02-20T01:15:27.485Z,53.73
2019-02-20T01:16:33.101Z,51.35
2019-02-20T01:17:38.134Z,47.15
2019-02-20T01:18:43.085Z,43.28
2019-02-20T01:19:48.315Z,40.98
2019-02-20T01:20:53.321Z,35.55
2019-02-20T01:21:58.577Z,31.70
2019-02-20T01:23:03.687Z,36.65
2019-02-20T01:24:08.577Z,30.55
2019-02-20T01:25:13.493Z,24.12
2019-02-20T01:26:18.676Z,22.32
2019-02-20T01:27:23.985Z,25.23
2019-02-20T01:28:29.160Z,19.55
2019-02-20T01:29:34.165Z,22.98
2019-02-20T01:30:39.370Z,23.47
2019-02-20T01:31:44.432Z,22.37
2019-02-20T01:32:49.535Z,22.52
2019-02-20T01:33:54.833Z,25.00
2019-02-20T01:34:59.778Z,21.25
2019-02-20T01:36:04.817Z,29.40
2019-02-20T01:37:09.935Z,23.38
2019-02-20T01:38:15.037Z,25.40
2019-02-20T01:39:19.969Z,25.55
2019-02-20T01:40:25.285Z,20.82
2019-02-20T01:41:30.319Z,22.75
2019-02-20T01:42:35.309Z,22.17
2019-02-20T01:43:40.218Z,19.23
2019-02-20T01:44:45.745Z,19.57
2019-02-20T01:45:50.795Z,23.00
2019-02-20T01:46:55.800Z,24.95
2019-02-20T01:48:00.713Z,27.93
2019-02-20T01:49:05.657Z,20.48
2019-02-20T01:50:10.869Z,21.33
2019-02-20T01:51:15.757Z,25.88
2019-02-20T01:52:21.088Z,20.57
2019-02-20T01:53:26.018Z,18.62
2019-02-20T01:54:30.924Z,21.02
2019-02-20T01:55:35.845Z,18.52
2019-02-20T01:56:40.771Z,35.35
2019-02-20T01:57:46.007Z,18.90
2019-02-20T01:58:51.801Z,26.10
2019-02-20T01:59:57.098Z,16.85
2019-02-20T02:01:02.160Z,31.40
2019-02-20T02:02:07.374Z,24.35
2019-02-20T02:03:12.640Z,19.40
2019-02-20T02:04:17.770Z,25.95
2019-02-20T02:05:22.726Z,23.98
2019-02-20T02:06:27.620Z,18.50
2019-02-20T02:07:32.798Z,21.15
2019-02-20T02:08:37.800Z,23.52
2019-02-20T02:09:43.070Z,25.12
2019-02-20T02:10:48.276Z,23.38
2019-02-20T02:11:53.423Z,23.07
2019-02-20T02:12:58.336Z,25.85
2019-02-20T02:14:03.319Z,30.10
2019-02-20T02:15:08.861Z,23.18
2019-02-20T02:16:13.887Z,24.37
2019-02-20T02:17:18.927Z,28.42
2019-02-20T02:18:23.899Z,35.55
2019-02-20T02:19:28.884Z,24.05
2019-02-20T02:20:33.989Z,26.57
2019-02-20T02:21:42.280Z,21.87
2019-02-20T02:22:47.298Z,29.85
2019-02-20T02:23:52.232Z,29.60
2019-02-20T02:24:57.620Z,26.97
2019-02-20T02:26:10.629Z,22.22
2019-02-20T02:27:09.301Z,22.30
2019-02-20T02:28:14.243Z,21.12
2019-02-20T02:29:19.653Z,21.57
2019-02-20T02:30:24.617Z,22.67
2019-02-20T02:31:29.603Z,26.97
2019-02-20T02:32:34.532Z,17.12
2019-02-20T02:33:40.162Z,18.95
2019-02-20T02:34:45.157Z,18.85
2019-02-20T02:35:55.783Z,18.70
2019-02-20T02:37:00.744Z,18.67
2019-02-20T02:38:06.341Z,17.77
2019-02-20T02:39:11.384Z,24.27
2019-02-20T02:40:16.666Z,28.52
2019-02-20T02:41:21.630Z,15.65
2019-02-20T02:42:26.551Z,20.25
2019-02-20T02:43:31.544Z,22.20
2019-02-20T02:44:36.829Z,19.85
2019-02-20T02:45:42.372Z,27.35
2019-02-20T02:46:47.682Z,13.93
2019-02-20T02:47:52.663Z,27.55
2019-02-20T02:48:57.972Z,23.80
2019-02-20T02:50:02.993Z,17.50
2019-02-20T02:51:07.896Z,24.82
2019-02-20T02:52:12.902Z,22.90
2019-02-20T02:53:18.400Z,19.90
2019-02-20T02:54:23.304Z,22.02
2019-02-20T02:55:28.315Z,17.52
2019-02-20T02:56:33.644Z,18.48
2019-02-20T02:57:38.938Z,18.23
2019-02-20T02:58:44.224Z,13.80
2019-02-20T02:59:49.161Z,27.30
2019-02-20T03:00:54.511Z,22.40
2019-02-20T03:01:59.466Z,13.50
2019-02-20T03:03:04.367Z,29.65
2019-02-20T03:04:09.460Z,20.45
2019-02-20T03:05:14.400Z,23.98
2019-02-20T03:06:19.326Z,17.23
2019-02-20T03:07:24.283Z,16.75
2019-02-20T03:08:29.235Z,20.55
2019-02-20T03:09:34.534Z,16.05
2019-02-20T03:10:39.457Z,22.37
2019-02-20T03:11:44.804Z,18.60
2019-02-20T03:12:49.677Z,21.62
2019-02-20T03:13:54.783Z,19.32
2019-02-20T03:15:00.420Z,17.95
2019-02-20T03:16:05.494Z,20.72
2019-02-20T03:17:10.460Z,22.82
2019-02-20T03:18:15.400Z,13.62
2019-02-20T03:19:20.341Z,20.72
2019-02-20T03:20:25.594Z,20.43
2019-02-20T03:21:30.584Z,16.80
2019-02-20T03:22:36.297Z,15.40
2019-02-20T03:23:41.576Z,24.15
2019-02-20T03:24:46.591Z,15.93
2019-02-20T03:25:51.907Z,18.65
2019-02-20T03:26:56.969Z,19.10
2019-02-20T03:28:01.998Z,14.55
2019-02-20T03:29:07.016Z,19.50
2019-02-20T03:30:12.043Z,21.95
2019-02-20T03:31:16.957Z,16.45
2019-02-20T03:32:21.910Z,18.75
2019-02-20T03:33:27.134Z,20.70
2019-02-20T03:34:32.219Z,15.28
2019-02-20T03:35:37.517Z,18.32
2019-02-20T03:36:42.413Z,18.87
2019-02-20T03:37:47.375Z,15.90
2019-02-20T03:38:52.639Z,20.60
2019-02-20T03:39:57.600Z,17.00
2019-02-20T03:41:02.576Z,17.07
2019-02-20T03:42:07.631Z,18.27
2019-02-20T03:43:12.820Z,21.90
2019-02-20T03:44:17.837Z,13.03
2019-02-20T03:45:22.827Z,21.40
2019-02-20T03:46:27.746Z,12.75
2019-02-20T03:47:32.731Z,17.55
2019-02-20T03:48:37.705Z,18.82
2019-02-20T03:49:42.760Z,23.35
2019-02-20T03:50:47.762Z,13.85
2019-02-20T03:51:52.763Z,23.42
2019-02-20T03:52:57.669Z,15.30
2019-02-20T03:54:02.805Z,16.42
2019-02-20T03:55:07.877Z,26.62
2019-02-20T03:56:13.284Z,16.20
2019-02-20T03:57:18.465Z,15.65
2019-02-20T03:58:23.492Z,19.42
2019-02-20T03:59:28.798Z,18.17
2019-02-20T04:00:34.146Z,17.55
2019-02-20T04:01:39.170Z,22.20
2019-02-20T04:02:44.159Z,19.12
2019-02-20T04:03:49.383Z,17.92
2019-02-20T04:04:54.716Z,19.27
2019-02-20T04:05:59.609Z,19.92
2019-02-20T04:07:04.532Z,18.17
2019-02-20T04:08:09.526Z,20.35
2019-02-20T04:09:14.813Z,11.40
2019-02-20T04:10:19.853Z,21.75
2019-02-20T04:11:24.874Z,20.37
2019-02-20T04:12:29.838Z,26.80
2019-02-20T04:13:35.261Z,17.60
2019-02-20T04:14:40.526Z,18.73
2019-02-20T04:15:45.508Z,15.15
2019-02-20T04:16:50.469Z,14.05
2019-02-20T04:17:55.786Z,19.42
2019-02-20T04:19:00.815Z,15.80
2019-02-20T04:20:06.777Z,21.62
2019-02-20T04:21:12.062Z,26.65
2019-02-20T04:22:16.999Z,17.75
2019-02-20T04:23:21.919Z,22.05
2019-02-20T04:24:26.922Z,14.13
2019-02-20T04:25:31.897Z,20.85
2019-02-20T04:26:38.771Z,22.13
2019-02-20T04:27:43.655Z,16.40
2019-02-20T04:28:48.718Z,19.90
2019-02-20T04:29:53.735Z,21.60
2019-02-20T04:30:58.663Z,21.93
2019-02-20T04:32:03.685Z,19.98
2019-02-20T04:33:08.952Z,20.20
2019-02-20T04:34:13.882Z,18.67
2019-02-20T04:35:18.817Z,14.53
2019-02-20T04:36:24.112Z,17.60
2019-02-20T04:37:29.012Z,22.05
2019-02-20T04:38:33.993Z,26.02
2019-02-20T04:39:38.904Z,19.48
2019-02-20T04:40:43.837Z,18.77
2019-02-20T04:41:48.783Z,20.62
2019-02-20T04:42:53.674Z,16.15
2019-02-20T04:43:58.605Z,18.52
2019-02-20T04:45:05.089Z,18.67
2019-02-20T04:46:10.321Z,20.72
2019-02-20T04:47:15.723Z,20.48
2019-02-20T04:48:20.622Z,16.70
2019-02-20T04:49:25.569Z,15.85
2019-02-20T04:50:30.495Z,16.95
2019-02-20T04:51:35.398Z,22.80
2019-02-20T04:52:40.512Z,23.12
2019-02-20T04:53:45.498Z,29.42
2019-02-20T04:54:50.521Z,25.27
2019-02-20T04:55:55.451Z,18.10
2019-02-20T04:57:00.761Z,13.30
2019-02-20T04:58:20.353Z,16.37
2019-02-20T04:59:25.418Z,21.97
2019-02-20T05:00:30.543Z,20.95
2019-02-20T05:01:35.875Z,17.15
2019-02-20T05:02:40.812Z,22.48
2019-02-20T05:03:46.086Z,15.00
2019-02-20T05:04:51.165Z,14.93
2019-02-20T05:05:56.129Z,18.27
2019-02-20T05:07:01.082Z,16.73
2019-02-20T05:08:06.194Z,20.70
2019-02-20T05:09:11.541Z,21.40
2019-02-20T05:10:16.482Z,25.37
2019-02-20T05:11:21.817Z,17.00
2019-02-20T05:12:27.208Z,16.05
2019-02-20T05:13:32.250Z,14.87
2019-02-20T05:14:37.237Z,23.85
2019-02-20T05:15:42.243Z,16.55
2019-02-20T05:16:47.576Z,19.02
2019-02-20T05:17:52.760Z,18.15
2019-02-20T05:18:57.873Z,21.10
2019-02-20T05:20:02.940Z,24.00
2019-02-20T05:21:07.864Z,21.45
2019-02-20T05:22:12.834Z,15.48
2019-02-20T05:23:18.144Z,13.00
2019-02-20T05:24:25.013Z,16.02
2019-02-20T05:25:29.872Z,14.58
2019-02-20T05:26:34.827Z,16.70
2019-02-20T05:27:39.782Z,23.60
2019-02-20T05:28:45.075Z,29.12
2019-02-20T05:29:50.278Z,19.10
2019-02-20T05:30:55.256Z,14.03
2019-02-20T05:32:00.216Z,16.25
2019-02-20T05:33:05.182Z,25.72
2019-02-20T05:34:10.313Z,22.20
2019-02-20T05:35:15.288Z,16.55
2019-02-20T05:36:20.281Z,23.50
2019-02-20T05:37:25.228Z,21.57
2019-02-20T05:38:30.167Z,24.55
2019-02-20T05:39:35.110Z,15.50
2019-02-20T05:40:40.021Z,20.32
2019-02-20T05:41:44.951Z,13.15
2019-02-20T05:42:50.023Z,17.25
2019-02-20T05:43:55.372Z,24.18
2019-02-20T05:45:00.689Z,22.62
2019-02-20T05:46:05.733Z,17.75
2019-02-20T05:47:10.702Z,18.87
2019-02-20T05:48:15.625Z,23.22
2019-02-20T05:49:21.002Z,32.25
2019-02-20T05:50:26.540Z,21.25
2019-02-20T05:51:31.795Z,22.27
2019-02-20T05:52:36.805Z,20.10
2019-02-20T05:53:41.818Z,62.88
2019-02-20T05:54:46.903Z,43.90
2019-02-20T05:55:51.855Z,38.65
2019-02-20T05:56:56.928Z,30.15
2019-02-20T05:58:01.831Z,25.55
2019-02-20T05:59:06.828Z,23.18
2019-02-20T06:00:12.277Z,31.45
2019-02-20T06:01:17.228Z,30.55
2019-02-20T06:02:22.267Z,40.92
2019-02-20T06:03:27.184Z,22.98
2019-02-20T06:04:32.893Z,23.98
2019-02-20T06:05:38.123Z,21.75
2019-02-20T06:06:43.142Z,29.40
2019-02-20T06:07:48.146Z,17.82
2019-02-20T06:08:53.100Z,21.20
2019-02-20T06:09:58.021Z,29.48
2019-02-20T06:11:13.873Z,22.25
2019-02-20T06:12:09.709Z,26.45
2019-02-20T06:13:14.615Z,80.28
2019-02-20T06:14:19.681Z,25.27
2019-02-20T06:15:24.616Z,17.92
2019-02-20T06:16:29.564Z,27.65
2019-02-20T06:17:34.830Z,17.40
2019-02-20T06:18:39.849Z,19.35
2019-02-20T06:19:44.792Z,19.30
2019-02-20T06:20:49.772Z,20.95
2019-02-20T06:21:54.747Z,17.52
2019-02-20T06:23:00.044Z,16.87
2019-02-20T06:24:05.007Z,22.20
2019-02-20T06:25:10.347Z,19.23
2019-02-20T06:26:15.325Z,25.68
2019-02-20T06:27:20.561Z,16.82
2019-02-20T06:28:25.519Z,15.98
2019-02-20T06:29:30.520Z,29.52
2019-02-20T06:30:35.479Z,28.60
2019-02-20T06:31:40.991Z,28.38
2019-02-20T06:32:45.948Z,30.90
2019-02-20T06:33:50.951Z,27.95
2019-02-20T06:34:55.991Z,22.22
2019-02-20T06:36:00.960Z,22.82
2019-02-20T06:37:05.984Z,29.10
2019-02-20T06:38:11.866Z,26.25
2019-02-20T06:39:17.279Z,28.60
2019-02-20T06:40:22.203Z,30.60
2019-02-20T06:41:27.190Z,21.00
2019-02-20T06:42:32.577Z,21.05
2019-02-20T06:43:37.626Z,27.55
2019-02-20T06:44:42.552Z,21.57
2019-02-20T06:45:48.098Z,27.07
2019-02-20T06:46:53.419Z,27.05
2019-02-20T06:47:58.319Z,26.82
2019-02-20T06:49:03.224Z,24.00
2019-02-20T06:50:08.416Z,31.45
2019-02-20T06:51:13.399Z,32.33
2019-02-20T06:52:18.424Z,27.77
2019-02-20T06:53:23.636Z,29.77
2019-02-20T06:54:28.720Z,23.73
2019-02-20T06:55:34.057Z,47.05
2019-02-20T06:56:39.143Z,28.32
2019-02-20T06:57:44.782Z,28.17
2019-02-20T06:58:49.821Z,27.15
2019-02-20T06:59:54.780Z,24.77
2019-02-20T07:00:59.790Z,17.65
2019-02-20T07:02:04.800Z,19.32
2019-02-20T07:03:09.732Z,20.30
2019-02-20T07:04:15.092Z,25.00
2019-02-20T07:05:34.416Z,23.95
2019-02-20T07:06:54.518Z,31.02
2019-02-20T07:08:26.381Z,26.57
2019-02-20T07:09:58.238Z,24.55
2019-02-20T07:11:44.199Z,27.02
2019-02-20T07:12:57.629Z,26.40
2019-02-20T07:14:41.117Z,30.10
2019-02-20T07:16:32.497Z,25.68
2019-02-20T07:18:15.225Z,30.15
2019-02-20T07:19:33.013Z,17.62
2019-02-20T07:21:14.976Z,16.15
2019-02-20T07:22:51.012Z,20.85
2019-02-20T07:24:33.098Z,24.85
2019-02-20T07:26:13.536Z,27.25
2019-02-20T07:27:50.038Z,27.48
2019-02-20T07:29:23.533Z,23.55
2019-02-20T07:30:28.458Z,32.28
2019-02-20T07:31:33.775Z,25.72
2019-02-20T07:32:38.810Z,35.10
2019-02-20T07:33:43.739Z,23.30
2019-02-20T07:34:48.637Z,25.43
2019-02-20T07:35:53.935Z,28.17
2019-02-20T07:36:58.946Z,21.62
2019-02-20T07:38:04.400Z,21.85
2019-02-20T07:39:09.454Z,27.20
2019-02-20T07:40:14.476Z,25.30
2019-02-20T07:41:19.489Z,23.45
2019-02-20T07:42:24.393Z,40.15
2019-02-20T07:43:29.484Z,20.02
2019-02-20T07:44:34.462Z,23.98
2019-02-20T07:45:39.847Z,31.02
2019-02-20T07:46:45.068Z,28.52
2019-02-20T07:47:50.303Z,42.78
2019-02-20T07:48:55.248Z,27.70
2019-02-20T07:50:00.418Z,29.67
2019-02-20T07:51:05.830Z,32.45
2019-02-20T07:52:11.108Z,34.13
2019-02-20T07:53:16.346Z,36.58
2019-02-20T07:54:21.751Z,25.70
2019-02-20T07:55:26.831Z,23.62
2019-02-20T07:56:32.047Z,27.85
2019-02-20T07:57:37.042Z,24.40
2019-02-20T07:58:42.289Z,24.75
2019-02-20T07:59:47.361Z,28.55
2019-02-20T08:00:52.885Z,24.00
2019-02-20T08:01:57.757Z,31.50
2019-02-20T08:03:02.654Z,25.75
2019-02-20T08:04:07.833Z,27.48
2019-02-20T08:05:12.969Z,25.20
2019-02-20T08:06:18.209Z,22.98
2019-02-20T08:07:23.140Z,23.83
2019-02-20T08:08:28.084Z,26.27
2019-02-20T08:09:33.052Z,24.30
2019-02-20T08:10:38.071Z,33.05
2019-02-20T08:11:43.283Z,22.98
2019-02-20T08:12:48.180Z,30.80
2019-02-20T08:13:53.180Z,29.45
2019-02-20T08:14:58.496Z,29.77
2019-02-20T08:16:03.558Z,32.83
2019-02-20T08:17:08.480Z,29.70
2019-02-20T08:18:13.765Z,19.52
2019-02-20T08:19:19.057Z,24.35
2019-02-20T08:20:24.145Z,29.15
2019-02-20T08:21:29.508Z,24.20
2019-02-20T08:22:34.467Z,35.68
2019-02-20T08:23:39.760Z,21.95
2019-02-20T08:24:44.867Z,35.90
2019-02-20T08:25:49.816Z,34.25
2019-02-20T08:26:55.122Z,28.70
2019-02-20T08:28:00.395Z,34.50
2019-02-20T08:29:05.865Z,29.15
2019-02-20T08:30:13.931Z,31.95
2019-02-20T08:31:18.834Z,22.45
2019-02-20T08:32:23.843Z,23.75
2019-02-20T08:33:28.901Z,33.95
2019-02-20T08:34:33.918Z,35.52
2019-02-20T08:35:38.866Z,31.97
2019-02-20T08:36:44.203Z,26.42
2019-02-20T08:37:49.111Z,32.48
2019-02-20T08:38:54.018Z,29.02
2019-02-20T08:39:59.279Z,37.25
2019-02-20T08:41:04.350Z,26.25
2019-02-20T08:42:09.379Z,25.20
2019-02-20T08:43:14.314Z,29.52
2019-02-20T08:44:19.275Z,27.80
2019-02-20T08:45:24.235Z,28.42
2019-02-20T08:46:29.466Z,31.55
2019-02-20T08:47:34.383Z,30.77
2019-02-20T08:48:39.567Z,28.00
2019-02-20T08:49:44.706Z,28.95
2019-02-20T08:50:49.925Z,25.60
2019-02-20T08:51:54.873Z,25.97
2019-02-20T08:52:59.843Z,31.77
2019-02-20T08:54:04.815Z,28.23
2019-02-20T08:55:10.026Z,29.80
2019-02-20T08:56:14.970Z,25.77
2019-02-20T08:57:20.230Z,26.57
2019-02-20T08:58:25.364Z,29.85
2019-02-20T08:59:30.309Z,28.32
2019-02-20T09:00:35.448Z,24.00
2019-02-20T09:01:40.368Z,27.48
2019-02-20T09:02:45.655Z,30.77
2019-02-20T09:03:50.806Z,27.35
2019-02-20T09:04:55.783Z,26.20
2019-02-20T09:06:00.879Z,31.70
2019-02-20T09:07:05.875Z,33.08
2019-02-20T09:08:10.874Z,29.12
2019-02-20T09:09:16.031Z,29.10
2019-02-20T09:10:20.973Z,31.07
2019-02-20T09:11:26.239Z,34.30
2019-02-20T09:12:31.160Z,28.67
2019-02-20T09:13:36.127Z,24.85
2019-02-20T09:14:41.136Z,35.90
2019-02-20T09:15:46.247Z,39.48
2019-02-20T09:16:51.596Z,44.20
2019-02-20T09:17:56.566Z,40.10
2019-02-20T09:19:01.649Z,39.88
2019-02-20T09:20:07.589Z,23.98
2019-02-20T09:21:12.575Z,34.75
2019-02-20T09:22:17.576Z,41.25
2019-02-20T09:23:22.496Z,28.98
2019-02-20T09:24:27.942Z,34.78
2019-02-20T09:25:41.354Z,43.35
2019-02-20T09:26:39.482Z,37.73
2019-02-20T09:27:44.729Z,27.60
2019-02-20T09:28:49.735Z,35.28
2019-02-20T09:29:54.766Z,32.20
2019-02-20T09:30:59.714Z,34.13
2019-02-20T09:32:05.069Z,33.25
2019-02-20T09:33:10.020Z,40.10
2019-02-20T09:34:15.293Z,37.38
2019-02-20T09:35:20.262Z,37.75
2019-02-20T09:36:25.221Z,44.77
2019-02-20T09:37:30.225Z,35.83
2019-02-20T09:38:35.192Z,33.38
2019-02-20T09:39:40.255Z,29.98
2019-02-20T09:40:45.227Z,39.10
2019-02-20T09:41:50.430Z,37.88
2019-02-20T09:42:55.498Z,34.27
2019-02-20T09:44:00.780Z,37.08
2019-02-20T09:45:06.700Z,32.93
2019-02-20T09:46:11.955Z,32.80
2019-02-20T09:47:17.665Z,33.70
2019-02-20T09:48:22.686Z,34.18
2019-02-20T09:49:27.643Z,43.83
2019-02-20T09:50:32.819Z,47.73
2019-02-20T09:51:38.055Z,47.05
2019-02-20T09:52:51.921Z,41.20
2019-02-20T09:53:50.204Z,38.75
2019-02-20T09:54:55.635Z,49.50
2019-02-20T09:56:00.661Z,41.95
2019-02-20T09:57:05.671Z,44.75
2019-02-20T09:58:10.724Z,38.85
2019-02-20T09:59:16.047Z,42.78
2019-02-20T10:00:21.481Z,34.53
2019-02-20T10:01:26.376Z,54.58
2019-02-20T10:02:31.369Z,51.30
2019-02-20T10:03:36.401Z,51.20
2019-02-20T10:04:41.792Z,44.08
2019-02-20T10:05:46.840Z,45.50
2019-02-20T10:06:51.884Z,42.38
2019-02-20T10:07:57.178Z,43.28
2019-02-20T10:09:02.116Z,45.85
2019-02-20T10:10:07.566Z,42.93
2019-02-20T10:11:12.548Z,61.02
2019-02-20T10:12:17.436Z,89.20
2019-02-20T10:13:22.459Z,89.17
2019-02-20T10:14:28.083Z,74.07
2019-02-20T10:15:32.994Z,77.97
2019-02-20T10:16:37.996Z,88.10
2019-02-20T10:17:43.128Z,96.35
2019-02-20T10:18:48.183Z,71.90
2019-02-20T10:19:53.298Z,55.52
2019-02-20T10:20:58.544Z,50.65
2019-02-20T10:22:03.484Z,52.50
2019-02-20T10:23:08.734Z,67.72
2019-02-20T10:24:14.106Z,56.63
2019-02-20T10:25:19.118Z,50.10
2019-02-20T10:26:24.029Z,46.65
2019-02-20T10:27:29.122Z,45.12
2019-02-20T10:28:34.064Z,42.27
2019-02-20T10:29:38.973Z,57.55
2019-02-20T10:30:43.981Z,63.55
2019-02-20T10:31:49.229Z,56.37
2019-02-20T10:32:54.674Z,46.63
2019-02-20T10:33:59.643Z,58.40
2019-02-20T10:35:04.895Z,49.80
2019-02-20T10:36:09.912Z,46.88
2019-02-20T10:37:15.119Z,51.98
2019-02-20T10:38:20.070Z,45.45
2019-02-20T10:39:25.517Z,51.95
2019-02-20T10:40:30.798Z,77.25
2019-02-20T10:41:35.788Z,57.25
2019-02-20T10:42:41.100Z,54.05
2019-02-20T10:43:46.105Z,52.90
2019-02-20T10:44:51.089Z,59.33
2019-02-20T10:45:56.125Z,44.73
2019-02-20T10:47:01.328Z,51.65
2019-02-20T10:48:06.331Z,37.98
2019-02-20T10:49:11.306Z,40.30
2019-02-20T10:50:16.452Z,47.17
2019-02-20T10:51:21.428Z,49.80
2019-02-20T10:52:26.376Z,54.27
2019-02-20T10:53:31.431Z,47.55
2019-02-20T10:54:36.419Z,33.80
2019-02-20T10:55:42.073Z,37.48
2019-02-20T10:56:47.217Z,39.13
2019-02-20T10:57:52.101Z,42.25
2019-02-20T10:58:57.082Z,43.50
2019-02-20T11:00:02.320Z,35.23
2019-02-20T11:01:07.661Z,40.40
2019-02-20T11:02:13.088Z,41.18
2019-02-20T11:03:18.182Z,35.78
2019-02-20T11:04:23.189Z,32.85
2019-02-20T11:05:28.436Z,45.00
2019-02-20T11:06:33.478Z,38.20
2019-02-20T11:07:39.137Z,33.83
2019-02-20T11:08:45.450Z,34.80
2019-02-20T11:09:50.417Z,28.87
2019-02-20T11:10:55.889Z,24.07
2019-02-20T11:12:00.928Z,36.70
2019-02-20T11:13:06.300Z,29.48
2019-02-20T11:14:11.631Z,32.60
2019-02-20T11:15:16.616Z,34.20
2019-02-20T11:16:21.590Z,28.15
2019-02-20T11:17:26.538Z,36.83
2019-02-20T11:18:31.545Z,30.17
2019-02-20T11:19:36.488Z,32.85
2019-02-20T11:20:48.273Z,28.50
2019-02-20T11:21:48.370Z,34.75
2019-02-20T11:22:53.577Z,32.73
2019-02-20T11:23:58.758Z,32.85
2019-02-20T11:25:04.140Z,33.18
2019-02-20T11:26:17.554Z,30.48
2019-02-20T11:27:16.213Z,33.05
2019-02-20T11:28:26.797Z,30.15
2019-02-20T11:29:28.283Z,28.30
2019-02-20T11:30:33.308Z,34.45
2019-02-20T11:31:38.273Z,41.65
2019-02-20T11:32:43.371Z,29.70
2019-02-20T11:33:48.944Z,31.82
2019-02-20T11:34:53.882Z,31.50
2019-02-20T11:35:59.003Z,25.77
2019-02-20T11:37:04.303Z,31.57
2019-02-20T11:38:09.293Z,21.77
2019-02-20T11:39:14.564Z,24.77
2019-02-20T11:40:19.639Z,26.82
2019-02-20T11:41:24.631Z,21.57
2019-02-20T11:42:29.529Z,23.90
2019-02-20T11:43:34.583Z,18.73
2019-02-20T11:44:39.541Z,27.22
2019-02-20T11:45:48.096Z,26.07
2019-02-20T11:46:53.074Z,25.65
2019-02-20T11:47:58.430Z,22.58
2019-02-20T11:49:03.416Z,25.02
2019-02-20T11:50:09.009Z,24.20
2019-02-20T11:51:14.279Z,18.73
2019-02-20T11:52:19.243Z,26.12
2019-02-20T11:53:24.123Z,18.92
2019-02-20T11:54:29.028Z,19.92
2019-02-20T11:55:34.031Z,22.10
2019-02-20T11:56:39.099Z,14.80
2019-02-20T11:57:44.048Z,15.65
2019-02-20T11:58:49.317Z,25.10
2019-02-20T11:59:54.278Z,19.15
2019-02-20T12:00:59.330Z,23.07
2019-02-20T12:02:04.385Z,16.35
2019-02-20T12:03:09.375Z,17.98
2019-02-20T12:04:14.590Z,17.45
2019-02-20T12:05:19.491Z,18.12
2019-02-20T12:06:24.531Z,19.65
2019-02-20T12:07:30.281Z,14.83
2019-02-20T12:08:35.614Z,17.10
2019-02-20T12:09:40.617Z,15.18
2019-02-20T12:10:45.662Z,12.13
2019-02-20T12:11:50.938Z,16.20
2019-02-20T12:12:55.968Z,12.60
2019-02-20T12:14:01.074Z,14.87
2019-02-20T12:15:06.412Z,13.15
2019-02-20T12:16:11.433Z,11.70
2019-02-20T12:17:16.792Z,12.65
2019-02-20T12:18:21.811Z,12.20
2019-02-20T12:19:27.185Z,12.18
2019-02-20T12:20:32.112Z,11.05
2019-02-20T12:21:37.087Z,12.68
2019-02-20T12:22:42.058Z,11.75
2019-02-20T12:23:47.277Z,12.15
2019-02-20T12:24:52.287Z,15.93
2019-02-20T12:25:57.236Z,9.98
2019-02-20T12:27:02.870Z,10.68
2019-02-20T12:28:08.211Z,15.23
2019-02-20T12:29:13.156Z,15.65
2019-02-20T12:30:18.277Z,10.32
2019-02-20T12:31:23.265Z,11.18
2019-02-20T12:32:28.609Z,14.33
2019-02-20T12:33:33.935Z,18.07
2019-02-20T12:34:38.983Z,16.45
2019-02-20T12:35:43.891Z,14.70
2019-02-20T12:36:48.841Z,19.45
2019-02-20T12:37:53.806Z,15.10
2019-02-20T12:38:58.753Z,16.67
2019-02-20T12:40:05.106Z,19.30
2019-02-20T12:41:10.986Z,22.10
2019-02-20T12:42:16.194Z,19.65
2019-02-20T12:43:21.209Z,18.77
2019-02-20T12:44:26.171Z,25.77
2019-02-20T12:45:31.516Z,15.68
2019-02-20T12:46:36.586Z,19.10
2019-02-20T12:47:41.889Z,19.82
2019-02-20T12:48:46.814Z,13.68
2019-02-20T12:49:51.752Z,13.55
2019-02-20T12:50:56.740Z,15.80
2019-02-20T12:52:02.093Z,14.80
2019-02-20T12:53:07.253Z,16.87
2019-02-20T12:54:12.206Z,20.15
2019-02-20T12:55:17.417Z,12.13
2019-02-20T12:56:22.422Z,15.10
2019-02-20T12:57:27.817Z,13.40
2019-02-20T12:58:33.131Z,12.50
2019-02-20T12:59:38.222Z,18.90
2019-02-20T13:00:43.787Z,22.30
2019-02-20T13:01:48.817Z,12.45
2019-02-20T13:02:53.831Z,15.55
2019-02-20T13:03:59.170Z,20.90
2019-02-20T13:05:04.494Z,14.63
2019-02-20T13:06:09.703Z,12.07
2019-02-20T13:07:14.659Z,16.48
2019-02-20T13:08:19.673Z,35.25
2019-02-20T13:09:24.794Z,23.15
2019-02-20T13:10:29.905Z,17.23
2019-02-20T13:11:34.896Z,14.93
2019-02-20T13:12:39.976Z,23.05
2019-02-20T13:13:45.388Z,17.65
2019-02-20T13:14:50.596Z,15.78
2019-02-20T13:15:56.088Z,22.93
2019-02-20T13:17:01.041Z,28.55
2019-02-20T13:18:06.172Z,18.23
2019-02-20T13:19:11.712Z,18.70
2019-02-20T13:20:16.782Z,19.87
2019-02-20T13:21:21.763Z,11.95
2019-02-20T13:22:27.372Z,13.60
2019-02-20T13:23:32.384Z,10.08
2019-02-20T13:24:37.327Z,12.68
2019-02-20T13:25:42.953Z,14.05
2019-02-20T13:26:52.757Z,18.80
2019-02-20T13:27:54.618Z,14.68
2019-02-20T13:28:59.522Z,17.42
2019-02-20T13:30:05.124Z,18.40
2019-02-20T13:31:10.384Z,23.00
2019-02-20T13:32:16.093Z,13.35
2019-02-20T13:33:21.405Z,18.57
2019-02-20T13:34:26.645Z,18.32
2019-02-20T13:35:31.805Z,21.93
2019-02-20T13:36:36.814Z,16.93
2019-02-20T13:37:41.764Z,17.27
2019-02-20T13:38:46.710Z,17.95
2019-02-20T13:39:52.177Z,16.75
2019-02-20T13:40:57.794Z,17.98
2019-02-20T13:42:03.084Z,19.57
2019-02-20T13:43:08.178Z,17.73
2019-02-20T13:44:13.225Z,22.37
2019-02-20T13:45:18.584Z,19.82
2019-02-20T13:46:23.844Z,19.15
2019-02-20T13:47:28.751Z,19.27
2019-02-20T13:48:34.970Z,21.85
2019-02-20T13:49:40.457Z,18.10
2019-02-20T13:50:45.396Z,21.05
2019-02-20T13:51:50.415Z,19.82
2019-02-20T13:52:55.613Z,18.00
2019-02-20T13:54:00.976Z,20.12
2019-02-20T13:55:06.993Z,18.42
2019-02-20T13:56:12.088Z,17.50
2019-02-20T13:57:17.414Z,21.05
2019-02-20T13:58:22.838Z,20.12
2019-02-20T13:59:27.865Z,20.17
2019-02-20T14:00:33.109Z,22.75
2019-02-20T14:01:38.793Z,24.07
2019-02-20T14:02:43.851Z,17.98
2019-02-20T14:03:48.890Z,19.12
2019-02-20T14:04:53.802Z,26.95
2019-02-20T14:05:59.130Z,18.10
2019-02-20T14:07:04.113Z,20.57
2019-02-20T14:08:09.224Z,26.68
2019-02-20T14:09:15.199Z,22.93